MCL Express — V2AS7 — position and weather

sailwx.info

Track history (hours):
 
Tides and Currents Weather Stations Pressure Air Temp Water Temp Dewpoint Dewpoint Depression Visibility Wind Speed Wind Dir Waves Ship Positions

MCL Express

Last reported at 2017-Nov-12 22:19 UTC. Time now 2017-Nov-17 23:16 UTC.
Position N 37°21' E 000°15'.

Length 93 m; draft 4.5 m.

Type: Cargo ship. MMSI: 304010998.

Date/timePositionNaut miles runAvg speedWind from/ knotsBaromVisibWave heightAir tempDewpointWater temp
2017-Nov-12 22:19N 37°21' E 000°15'7 9.4
2017-Nov-12 21:34N 37°14' E 000°14'1 9.4
2017-Nov-12 21:30N 37°14' E 000°14'5 9.5
2017-Nov-12 21:00N 37°09' E 000°13'13 9.6
2017-Nov-12 19:40N 36°56' E 000°12'2 9.6
2017-Nov-12 19:29N 36°55' E 000°12'5 9.7
2017-Nov-12 19:01N 36°50' E 000°12'5 9.5
2017-Nov-12 18:30N 36°45' E 000°12'5 9.4
2017-Nov-12 18:00N 36°40' E 000°10'  
2017-Nov-08 08:05N 37°07' W 000°42'5 9.8
2017-Nov-08 07:36N 37°12' W 000°45'2 9.8
2017-Nov-08 07:25N 37°13' W 000°46'4 9.8
2017-Nov-08 06:59N 37°17' W 000°48'5 9.8
2017-Nov-08 06:30N 37°21' W 000°51'5 9.9
2017-Nov-08 05:59N 37°26' W 000°54'510.0
2017-Nov-08 05:30N 37°30' W 000°57'  
Track history (hours):
 
Tides and Currents Weather Stations Pressure Air Temp Water Temp Dewpoint Dewpoint Depression Visibility Wind Speed Wind Dir Waves Ship Positions

MCL Express

Last reported at 2017-Nov-12 22:19 UTC. Time now 2017-Nov-17 23:16 UTC.
Position N 37°21' E 000°15'.

Length 93 m; draft 4.5 m.

Type: Cargo ship. MMSI: 304010998.

Date/timePositionNaut miles runAvg speedWind from/ knotsBaromVisibWave heightAir tempDewpointWater temp
2017-Nov-12 22:19N 37°21' E 000°15'7 9.4
2017-Nov-12 21:34N 37°14' E 000°14'1 9.4
2017-Nov-12 21:30N 37°14' E 000°14'5 9.5
2017-Nov-12 21:00N 37°09' E 000°13'13 9.6
2017-Nov-12 19:40N 36°56' E 000°12'2 9.6
2017-Nov-12 19:29N 36°55' E 000°12'5 9.7
2017-Nov-12 19:01N 36°50' E 000°12'5 9.5
2017-Nov-12 18:30N 36°45' E 000°12'5 9.4
2017-Nov-12 18:00N 36°40' E 000°10'  
2017-Nov-08 08:05N 37°07' W 000°42'5 9.8
2017-Nov-08 07:36N 37°12' W 000°45'2 9.8
2017-Nov-08 07:25N 37°13' W 000°46'4 9.8
2017-Nov-08 06:59N 37°17' W 000°48'5 9.8
2017-Nov-08 06:30N 37°21' W 000°51'5 9.9
2017-Nov-08 05:59N 37°26' W 000°54'510.0
2017-Nov-08 05:30N 37°30' W 000°57'  

Dump ship's entire track history